sensor_id;sensor_type;location;lat;lon;timestamp;P1;durP1;ratioP1;P2;durP2;ratioP2
76610;SDS011;65503;48.534;9.062;2022-12-18T00:02:11;42.80;;;14.23;;
76610;SDS011;65503;48.534;9.062;2022-12-18T00:04:38;42.33;;;15.10;;
76610;SDS011;65503;48.534;9.062;2022-12-18T00:07:04;34.80;;;10.68;;
76610;SDS011;65503;48.534;9.062;2022-12-18T00:09:31;38.67;;;13.73;;
76610;SDS011;65503;48.534;9.062;2022-12-18T00:12:05;31.25;;;9.68;;
76610;SDS011;65503;48.534;9.062;2022-12-18T00:14:40;47.17;;;14.65;;
76610;SDS011;65503;48.534;9.062;2022-12-18T00:17:07;55.55;;;17.35;;
76610;SDS011;65503;48.534;9.062;2022-12-18T00:19:34;38.50;;;13.98;;
76610;SDS011;65503;48.534;9.062;2022-12-18T00:22:01;46.40;;;13.65;;
76610;SDS011;65503;48.534;9.062;2022-12-18T00:24:28;41.78;;;14.23;;
76610;SDS011;65503;48.534;9.062;2022-12-18T00:26:54;46.42;;;15.27;;
76610;SDS011;65503;48.534;9.062;2022-12-18T00:29:20;44.63;;;14.63;;
76610;SDS011;65503;48.534;9.062;2022-12-18T00:31:47;49.55;;;16.50;;
76610;SDS011;65503;48.534;9.062;2022-12-18T00:34:13;31.73;;;10.85;;
76610;SDS011;65503;48.534;9.062;2022-12-18T00:36:40;29.98;;;10.60;;
76610;SDS011;65503;48.534;9.062;2022-12-18T00:39:07;31.25;;;9.23;;
76610;SDS011;65503;48.534;9.062;2022-12-18T00:41:35;40.97;;;13.65;;
76610;SDS011;65503;48.534;9.062;2022-12-18T00:44:21;22.08;;;7.88;;
76610;SDS011;65503;48.534;9.062;2022-12-18T00:46:47;21.75;;;7.40;;
76610;SDS011;65503;48.534;9.062;2022-12-18T00:49:15;38.08;;;12.45;;
76610;SDS011;65503;48.534;9.062;2022-12-18T00:51:44;35.67;;;14.13;;
76610;SDS011;65503;48.534;9.062;2022-12-18T00:54:11;37.55;;;12.10;;
76610;SDS011;65503;48.534;9.062;2022-12-18T00:56:38;38.00;;;14.07;;
76610;SDS011;65503;48.534;9.062;2022-12-18T00:59:14;37.28;;;10.77;;
76610;SDS011;65503;48.534;9.062;2022-12-18T01:01:41;37.17;;;12.60;;
76610;SDS011;65503;48.534;9.062;2022-12-18T01:04:08;42.25;;;13.52;;
76610;SDS011;65503;48.534;9.062;2022-12-18T01:06:35;45.72;;;14.57;;
76610;SDS011;65503;48.534;9.062;2022-12-18T01:09:02;26.58;;;9.80;;
76610;SDS011;65503;48.534;9.062;2022-12-18T01:11:29;28.33;;;9.52;;
76610;SDS011;65503;48.534;9.062;2022-12-18T01:13:56;37.33;;;10.98;;
76610;SDS011;65503;48.534;9.062;2022-12-18T01:16:25;34.05;;;14.20;;
76610;SDS011;65503;48.534;9.062;2022-12-18T01:18:52;40.75;;;14.43;;
76610;SDS011;65503;48.534;9.062;2022-12-18T01:21:21;39.15;;;13.05;;
76610;SDS011;65503;48.534;9.062;2022-12-18T01:23:52;38.33;;;12.80;;
76610;SDS011;65503;48.534;9.062;2022-12-18T01:26:20;36.38;;;13.07;;
76610;SDS011;65503;48.534;9.062;2022-12-18T01:28:46;35.50;;;11.63;;
76610;SDS011;65503;48.534;9.062;2022-12-18T01:31:15;28.00;;;10.23;;
76610;SDS011;65503;48.534;9.062;2022-12-18T01:33:52;41.58;;;12.93;;
76610;SDS011;65503;48.534;9.062;2022-12-18T01:36:21;32.47;;;9.85;;
76610;SDS011;65503;48.534;9.062;2022-12-18T01:38:49;36.60;;;13.18;;
76610;SDS011;65503;48.534;9.062;2022-12-18T01:41:17;40.58;;;15.55;;
76610;SDS011;65503;48.534;9.062;2022-12-18T01:43:54;42.70;;;14.73;;
76610;SDS011;65503;48.534;9.062;2022-12-18T01:46:23;41.83;;;15.77;;
76610;SDS011;65503;48.534;9.062;2022-12-18T01:48:52;43.88;;;15.80;;
76610;SDS011;65503;48.534;9.062;2022-12-18T01:51:23;53.97;;;17.52;;
76610;SDS011;65503;48.534;9.062;2022-12-18T01:53:50;52.75;;;16.48;;
76610;SDS011;65503;48.534;9.062;2022-12-18T01:56:18;48.25;;;17.92;;
76610;SDS011;65503;48.534;9.062;2022-12-18T02:01:27;41.78;;;13.80;;
76610;SDS011;65503;48.534;9.062;2022-12-18T02:04:10;41.85;;;14.90;;
76610;SDS011;65503;48.534;9.062;2022-12-18T02:07:36;44.33;;;15.20;;
76610;SDS011;65503;48.534;9.062;2022-12-18T02:15:56;31.52;;;12.30;;
76610;SDS011;65503;48.534;9.062;2022-12-18T02:18:38;41.13;;;13.98;;
76610;SDS011;65503;48.534;9.062;2022-12-18T02:21:31;35.58;;;13.05;;
76610;SDS011;65503;48.534;9.062;2022-12-18T02:24:15;25.02;;;9.60;;
76610;SDS011;65503;48.534;9.062;2022-12-18T02:26:53;36.35;;;11.10;;
76610;SDS011;65503;48.534;9.062;2022-12-18T02:29:24;38.30;;;11.88;;
76610;SDS011;65503;48.534;9.062;2022-12-18T02:31:56;35.80;;;12.07;;
76610;SDS011;65503;48.534;9.062;2022-12-18T02:34:32;29.33;;;10.80;;
76610;SDS011;65503;48.534;9.062;2022-12-18T02:37:04;33.22;;;10.73;;
76610;SDS011;65503;48.534;9.062;2022-12-18T02:39:38;41.60;;;14.35;;
76610;SDS011;65503;48.534;9.062;2022-12-18T02:42:08;33.60;;;10.98;;
76610;SDS011;65503;48.534;9.062;2022-12-18T02:44:42;34.15;;;11.02;;
76610;SDS011;65503;48.534;9.062;2022-12-18T02:47:13;34.92;;;12.90;;
76610;SDS011;65503;48.534;9.062;2022-12-18T02:58:46;40.10;;;13.32;;
76610;SDS011;65503;48.534;9.062;2022-12-18T03:04:07;38.03;;;10.13;;
76610;SDS011;65503;48.534;9.062;2022-12-18T03:06:40;30.15;;;11.05;;
76610;SDS011;65503;48.534;9.062;2022-12-18T03:09:10;36.72;;;11.00;;
76610;SDS011;65503;48.534;9.062;2022-12-18T03:11:44;47.35;;;15.25;;
76610;SDS011;65503;48.534;9.062;2022-12-18T03:14:36;32.13;;;12.20;;
76610;SDS011;65503;48.534;9.062;2022-12-18T03:17:05;30.88;;;9.85;;
76610;SDS011;65503;48.534;9.062;2022-12-18T03:19:36;29.50;;;10.43;;
76610;SDS011;65503;48.534;9.062;2022-12-18T03:22:05;36.10;;;10.38;;
76610;SDS011;65503;48.534;9.062;2022-12-18T03:24:33;34.22;;;11.80;;
76610;SDS011;65503;48.534;9.062;2022-12-18T03:27:09;33.05;;;11.07;;
76610;SDS011;65503;48.534;9.062;2022-12-18T03:29:51;34.80;;;10.80;;
76610;SDS011;65503;48.534;9.062;2022-12-18T03:32:27;38.20;;;11.23;;
76610;SDS011;65503;48.534;9.062;2022-12-18T03:34:58;31.15;;;10.40;;
76610;SDS011;65503;48.534;9.062;2022-12-18T03:37:29;26.85;;;9.20;;
76610;SDS011;65503;48.534;9.062;2022-12-18T03:39:57;31.00;;;8.57;;
76610;SDS011;65503;48.534;9.062;2022-12-18T03:42:28;26.75;;;9.68;;
76610;SDS011;65503;48.534;9.062;2022-12-18T03:47:41;33.08;;;10.18;;
76610;SDS011;65503;48.534;9.062;2022-12-18T03:50:20;29.75;;;10.48;;
76610;SDS011;65503;48.534;9.062;2022-12-18T03:55:26;29.63;;;10.32;;
76610;SDS011;65503;48.534;9.062;2022-12-18T03:57:55;29.83;;;9.38;;
76610;SDS011;65503;48.534;9.062;2022-12-18T04:00:23;28.27;;;10.75;;
76610;SDS011;65503;48.534;9.062;2022-12-18T04:02:51;26.65;;;9.48;;
76610;SDS011;65503;48.534;9.062;2022-12-18T04:05:20;35.40;;;12.82;;
76610;SDS011;65503;48.534;9.062;2022-12-18T04:07:48;29.08;;;10.00;;
76610;SDS011;65503;48.534;9.062;2022-12-18T04:10:18;25.80;;;8.95;;
76610;SDS011;65503;48.534;9.062;2022-12-18T04:12:44;25.15;;;7.85;;
76610;SDS011;65503;48.534;9.062;2022-12-18T04:15:11;23.75;;;7.35;;
76610;SDS011;65503;48.534;9.062;2022-12-18T04:17:39;24.55;;;7.60;;
76610;SDS011;65503;48.534;9.062;2022-12-18T04:20:13;30.35;;;9.77;;
76610;SDS011;65503;48.534;9.062;2022-12-18T04:22:39;29.30;;;10.07;;
76610;SDS011;65503;48.534;9.062;2022-12-18T04:25:06;36.83;;;12.50;;
76610;SDS011;65503;48.534;9.062;2022-12-18T04:27:33;44.85;;;15.05;;
76610;SDS011;65503;48.534;9.062;2022-12-18T04:30:00;31.05;;;10.00;;
76610;SDS011;65503;48.534;9.062;2022-12-18T04:32:27;26.10;;;9.18;;
76610;SDS011;65503;48.534;9.062;2022-12-18T04:34:53;37.90;;;11.35;;
76610;SDS011;65503;48.534;9.062;2022-12-18T04:37:20;37.72;;;11.77;;
76610;SDS011;65503;48.534;9.062;2022-12-18T04:39:46;55.38;;;16.38;;
76610;SDS011;65503;48.534;9.062;2022-12-18T04:42:13;39.67;;;10.60;;
76610;SDS011;65503;48.534;9.062;2022-12-18T04:44:39;59.28;;;16.48;;
76610;SDS011;65503;48.534;9.062;2022-12-18T04:47:06;55.90;;;14.57;;
76610;SDS011;65503;48.534;9.062;2022-12-18T04:49:33;32.05;;;9.90;;
76610;SDS011;65503;48.534;9.062;2022-12-18T04:52:00;48.13;;;10.57;;
76610;SDS011;65503;48.534;9.062;2022-12-18T04:54:26;57.35;;;17.20;;
76610;SDS011;65503;48.534;9.062;2022-12-18T04:56:53;58.38;;;15.25;;
76610;SDS011;65503;48.534;9.062;2022-12-18T04:59:20;33.67;;;9.98;;
76610;SDS011;65503;48.534;9.062;2022-12-18T05:01:47;40.25;;;12.93;;
76610;SDS011;65503;48.534;9.062;2022-12-18T05:04:13;32.50;;;9.07;;
76610;SDS011;65503;48.534;9.062;2022-12-18T05:06:40;25.52;;;7.57;;
76610;SDS011;65503;48.534;9.062;2022-12-18T05:09:07;30.80;;;9.98;;
76610;SDS011;65503;48.534;9.062;2022-12-18T05:11:34;45.15;;;11.40;;
76610;SDS011;65503;48.534;9.062;2022-12-18T05:14:01;33.53;;;9.52;;
76610;SDS011;65503;48.534;9.062;2022-12-18T05:16:28;34.17;;;11.00;;
76610;SDS011;65503;48.534;9.062;2022-12-18T05:18:54;34.15;;;10.90;;
76610;SDS011;65503;48.534;9.062;2022-12-18T05:21:21;41.85;;;12.40;;
76610;SDS011;65503;48.534;9.062;2022-12-18T05:23:47;49.00;;;12.50;;
76610;SDS011;65503;48.534;9.062;2022-12-18T05:26:15;40.17;;;11.10;;
76610;SDS011;65503;48.534;9.062;2022-12-18T05:28:43;24.08;;;8.30;;
76610;SDS011;65503;48.534;9.062;2022-12-18T05:31:10;32.42;;;9.35;;
76610;SDS011;65503;48.534;9.062;2022-12-18T05:33:37;35.65;;;10.57;;
76610;SDS011;65503;48.534;9.062;2022-12-18T05:36:06;26.45;;;8.80;;
76610;SDS011;65503;48.534;9.062;2022-12-18T05:38:35;38.80;;;10.23;;
76610;SDS011;65503;48.534;9.062;2022-12-18T05:41:03;28.40;;;9.07;;
76610;SDS011;65503;48.534;9.062;2022-12-18T05:43:30;33.45;;;10.63;;
76610;SDS011;65503;48.534;9.062;2022-12-18T05:45:57;32.38;;;11.48;;
76610;SDS011;65503;48.534;9.062;2022-12-18T05:48:24;32.90;;;10.00;;
76610;SDS011;65503;48.534;9.062;2022-12-18T05:50:51;34.33;;;10.07;;
76610;SDS011;65503;48.534;9.062;2022-12-18T05:53:18;35.17;;;9.25;;
76610;SDS011;65503;48.534;9.062;2022-12-18T05:55:46;33.50;;;10.10;;
76610;SDS011;65503;48.534;9.062;2022-12-18T05:58:13;35.00;;;9.45;;
76610;SDS011;65503;48.534;9.062;2022-12-18T06:00:42;30.98;;;9.00;;
76610;SDS011;65503;48.534;9.062;2022-12-18T06:03:12;27.70;;;8.23;;
76610;SDS011;65503;48.534;9.062;2022-12-18T06:05:41;29.55;;;7.53;;
76610;SDS011;65503;48.534;9.062;2022-12-18T06:08:10;23.80;;;7.38;;
76610;SDS011;65503;48.534;9.062;2022-12-18T06:10:37;29.90;;;10.18;;
76610;SDS011;65503;48.534;9.062;2022-12-18T06:13:05;24.52;;;8.00;;
76610;SDS011;65503;48.534;9.062;2022-12-18T06:15:32;28.83;;;9.00;;
76610;SDS011;65503;48.534;9.062;2022-12-18T06:18:00;30.95;;;10.27;;
76610;SDS011;65503;48.534;9.062;2022-12-18T06:20:27;48.17;;;13.48;;
76610;SDS011;65503;48.534;9.062;2022-12-18T06:22:58;52.83;;;12.85;;
76610;SDS011;65503;48.534;9.062;2022-12-18T06:25:25;33.90;;;10.15;;
76610;SDS011;65503;48.534;9.062;2022-12-18T06:27:52;48.10;;;14.10;;
76610;SDS011;65503;48.534;9.062;2022-12-18T06:30:18;30.70;;;10.18;;
76610;SDS011;65503;48.534;9.062;2022-12-18T06:32:45;34.13;;;9.95;;
76610;SDS011;65503;48.534;9.062;2022-12-18T06:35:18;39.33;;;10.90;;
76610;SDS011;65503;48.534;9.062;2022-12-18T06:37:46;37.47;;;9.90;;
76610;SDS011;65503;48.534;9.062;2022-12-18T06:40:12;30.10;;;8.45;;
76610;SDS011;65503;48.534;9.062;2022-12-18T06:42:39;29.98;;;10.85;;
76610;SDS011;65503;48.534;9.062;2022-12-18T06:45:05;48.55;;;11.93;;
76610;SDS011;65503;48.534;9.062;2022-12-18T06:47:32;31.77;;;10.15;;
76610;SDS011;65503;48.534;9.062;2022-12-18T06:49:59;37.88;;;11.38;;
76610;SDS011;65503;48.534;9.062;2022-12-18T06:52:25;50.47;;;12.38;;
76610;SDS011;65503;48.534;9.062;2022-12-18T06:54:52;37.08;;;10.45;;
76610;SDS011;65503;48.534;9.062;2022-12-18T06:57:18;46.63;;;13.48;;
76610;SDS011;65503;48.534;9.062;2022-12-18T06:59:45;43.35;;;11.40;;
76610;SDS011;65503;48.534;9.062;2022-12-18T07:02:12;47.60;;;14.70;;
76610;SDS011;65503;48.534;9.062;2022-12-18T07:04:39;47.60;;;12.68;;
76610;SDS011;65503;48.534;9.062;2022-12-18T07:07:06;48.75;;;15.48;;
76610;SDS011;65503;48.534;9.062;2022-12-18T07:09:32;52.55;;;16.33;;
76610;SDS011;65503;48.534;9.062;2022-12-18T07:11:59;44.88;;;14.65;;
76610;SDS011;65503;48.534;9.062;2022-12-18T07:14:25;38.90;;;11.93;;
76610;SDS011;65503;48.534;9.062;2022-12-18T07:16:52;35.30;;;10.98;;
76610;SDS011;65503;48.534;9.062;2022-12-18T07:19:18;40.92;;;11.18;;
76610;SDS011;65503;48.534;9.062;2022-12-18T07:21:45;40.53;;;11.68;;
76610;SDS011;65503;48.534;9.062;2022-12-18T07:24:12;42.20;;;11.75;;
76610;SDS011;65503;48.534;9.062;2022-12-18T07:26:38;37.75;;;11.27;;
76610;SDS011;65503;48.534;9.062;2022-12-18T07:29:05;32.92;;;9.85;;
76610;SDS011;65503;48.534;9.062;2022-12-18T07:31:31;31.58;;;9.05;;
76610;SDS011;65503;48.534;9.062;2022-12-18T07:33:58;50.92;;;16.27;;
76610;SDS011;65503;48.534;9.062;2022-12-18T07:36:24;48.97;;;12.40;;
76610;SDS011;65503;48.534;9.062;2022-12-18T07:38:51;43.53;;;11.80;;
76610;SDS011;65503;48.534;9.062;2022-12-18T07:41:21;27.17;;;9.00;;
76610;SDS011;65503;48.534;9.062;2022-12-18T07:43:47;31.80;;;9.98;;
76610;SDS011;65503;48.534;9.062;2022-12-18T07:46:15;55.47;;;15.45;;
76610;SDS011;65503;48.534;9.062;2022-12-18T07:48:42;39.15;;;11.63;;
76610;SDS011;65503;48.534;9.062;2022-12-18T07:51:14;29.98;;;9.45;;
76610;SDS011;65503;48.534;9.062;2022-12-18T07:53:42;42.20;;;14.50;;
76610;SDS011;65503;48.534;9.062;2022-12-18T07:56:09;51.38;;;13.55;;
76610;SDS011;65503;48.534;9.062;2022-12-18T07:58:56;49.50;;;13.15;;
76610;SDS011;65503;48.534;9.062;2022-12-18T08:01:23;54.42;;;15.25;;
76610;SDS011;65503;48.534;9.062;2022-12-18T08:03:50;50.55;;;14.73;;
76610;SDS011;65503;48.534;9.062;2022-12-18T08:06:18;38.63;;;13.43;;
76610;SDS011;65503;48.534;9.062;2022-12-18T08:08:53;37.85;;;11.93;;
76610;SDS011;65503;48.534;9.062;2022-12-18T08:11:21;54.55;;;16.83;;
76610;SDS011;65503;48.534;9.062;2022-12-18T08:13:49;42.97;;;13.73;;
76610;SDS011;65503;48.534;9.062;2022-12-18T08:16:16;47.00;;;14.43;;
76610;SDS011;65503;48.534;9.062;2022-12-18T08:18:44;44.20;;;13.25;;
76610;SDS011;65503;48.534;9.062;2022-12-18T08:21:12;60.40;;;16.27;;
76610;SDS011;65503;48.534;9.062;2022-12-18T08:23:39;44.30;;;12.60;;
76610;SDS011;65503;48.534;9.062;2022-12-18T08:26:09;39.63;;;11.65;;
76610;SDS011;65503;48.534;9.062;2022-12-18T08:28:36;48.17;;;19.73;;
76610;SDS011;65503;48.534;9.062;2022-12-18T08:31:03;51.60;;;16.10;;
76610;SDS011;65503;48.534;9.062;2022-12-18T08:33:30;38.00;;;14.68;;
76610;SDS011;65503;48.534;9.062;2022-12-18T08:35:58;41.95;;;13.25;;
76610;SDS011;65503;48.534;9.062;2022-12-18T08:38:25;42.55;;;15.15;;
76610;SDS011;65503;48.534;9.062;2022-12-18T08:41:25;36.92;;;15.48;;
76610;SDS011;65503;48.534;9.062;2022-12-18T08:43:44;41.45;;;15.00;;
76610;SDS011;65503;48.534;9.062;2022-12-18T08:46:39;45.42;;;15.82;;
76610;SDS011;65503;48.534;9.062;2022-12-18T08:49:07;36.90;;;14.85;;
76610;SDS011;65503;48.534;9.062;2022-12-18T08:51:34;43.70;;;14.13;;
76610;SDS011;65503;48.534;9.062;2022-12-18T08:54:02;44.50;;;15.15;;
76610;SDS011;65503;48.534;9.062;2022-12-18T08:56:31;52.53;;;20.13;;
76610;SDS011;65503;48.534;9.062;2022-12-18T08:58:58;46.15;;;17.50;;
76610;SDS011;65503;48.534;9.062;2022-12-18T09:01:24;38.90;;;14.88;;
76610;SDS011;65503;48.534;9.062;2022-12-18T09:03:51;54.55;;;17.60;;
76610;SDS011;65503;48.534;9.062;2022-12-18T09:06:19;45.20;;;15.52;;
76610;SDS011;65503;48.534;9.062;2022-12-18T09:08:46;32.13;;;12.82;;
76610;SDS011;65503;48.534;9.062;2022-12-18T09:11:21;38.42;;;13.73;;
76610;SDS011;65503;48.534;9.062;2022-12-18T09:13:49;55.15;;;21.00;;
76610;SDS011;65503;48.534;9.062;2022-12-18T09:16:16;51.70;;;20.73;;
76610;SDS011;65503;48.534;9.062;2022-12-18T09:18:43;41.22;;;14.75;;
76610;SDS011;65503;48.534;9.062;2022-12-18T09:21:13;49.80;;;17.42;;
76610;SDS011;65503;48.534;9.062;2022-12-18T09:23:54;45.22;;;15.68;;
76610;SDS011;65503;48.534;9.062;2022-12-18T09:26:22;53.25;;;19.63;;
76610;SDS011;65503;48.534;9.062;2022-12-18T09:28:49;43.17;;;16.98;;
76610;SDS011;65503;48.534;9.062;2022-12-18T09:31:17;61.25;;;20.10;;
76610;SDS011;65503;48.534;9.062;2022-12-18T09:33:45;41.53;;;16.15;;
76610;SDS011;65503;48.534;9.062;2022-12-18T09:36:13;47.65;;;16.67;;
76610;SDS011;65503;48.534;9.062;2022-12-18T09:38:41;41.28;;;16.55;;
76610;SDS011;65503;48.534;9.062;2022-12-18T09:46:17;44.17;;;16.55;;
76610;SDS011;65503;48.534;9.062;2022-12-18T09:48:52;47.75;;;17.85;;
76610;SDS011;65503;48.534;9.062;2022-12-18T09:51:31;49.85;;;18.83;;
76610;SDS011;65503;48.534;9.062;2022-12-18T09:57:04;51.58;;;20.02;;
76610;SDS011;65503;48.534;9.062;2022-12-18T09:59:33;49.60;;;19.40;;
76610;SDS011;65503;48.534;9.062;2022-12-18T10:05:12;51.13;;;20.27;;
76610;SDS011;65503;48.534;9.062;2022-12-18T10:10:19;47.38;;;19.90;;
76610;SDS011;65503;48.534;9.062;2022-12-18T10:13:09;53.47;;;21.30;;
76610;SDS011;65503;48.534;9.062;2022-12-18T10:16:09;48.08;;;18.10;;
76610;SDS011;65503;48.534;9.062;2022-12-18T10:18:53;45.78;;;18.13;;
76610;SDS011;65503;48.534;9.062;2022-12-18T10:27:21;46.75;;;19.63;;
76610;SDS011;65503;48.534;9.062;2022-12-18T10:29:50;44.47;;;16.70;;
76610;SDS011;65503;48.534;9.062;2022-12-18T10:32:18;48.70;;;19.85;;
76610;SDS011;65503;48.534;9.062;2022-12-18T10:34:47;46.25;;;21.08;;
76610;SDS011;65503;48.534;9.062;2022-12-18T10:37:18;53.30;;;21.08;;
76610;SDS011;65503;48.534;9.062;2022-12-18T10:39:47;56.15;;;23.98;;
76610;SDS011;65503;48.534;9.062;2022-12-18T10:42:33;49.17;;;17.90;;
76610;SDS011;65503;48.534;9.062;2022-12-18T10:45:11;58.55;;;22.38;;
76610;SDS011;65503;48.534;9.062;2022-12-18T10:47:43;49.67;;;20.20;;
76610;SDS011;65503;48.534;9.062;2022-12-18T10:50:19;55.45;;;22.25;;
76610;SDS011;65503;48.534;9.062;2022-12-18T10:53:13;53.70;;;21.25;;
76610;SDS011;65503;48.534;9.062;2022-12-18T10:55:46;53.45;;;20.58;;
76610;SDS011;65503;48.534;9.062;2022-12-18T10:58:32;56.38;;;22.20;;
76610;SDS011;65503;48.534;9.062;2022-12-18T11:01:10;53.80;;;19.88;;
76610;SDS011;65503;48.534;9.062;2022-12-18T11:03:38;58.17;;;22.23;;
76610;SDS011;65503;48.534;9.062;2022-12-18T11:06:09;43.95;;;17.65;;
76610;SDS011;65503;48.534;9.062;2022-12-18T11:08:37;51.08;;;20.67;;
76610;SDS011;65503;48.534;9.062;2022-12-18T11:11:07;58.05;;;21.40;;
76610;SDS011;65503;48.534;9.062;2022-12-18T11:13:42;44.80;;;18.70;;
76610;SDS011;65503;48.534;9.062;2022-12-18T11:16:34;43.88;;;18.13;;
76610;SDS011;65503;48.534;9.062;2022-12-18T11:22:00;62.63;;;22.98;;
76610;SDS011;65503;48.534;9.062;2022-12-18T11:24:33;52.30;;;21.60;;
76610;SDS011;65503;48.534;9.062;2022-12-18T11:27:02;52.75;;;23.42;;
76610;SDS011;65503;48.534;9.062;2022-12-18T11:29:37;48.88;;;21.95;;
76610;SDS011;65503;48.534;9.062;2022-12-18T11:34:42;64.85;;;23.33;;
76610;SDS011;65503;48.534;9.062;2022-12-18T11:37:12;64.13;;;23.67;;
76610;SDS011;65503;48.534;9.062;2022-12-18T11:39:46;46.30;;;18.27;;
76610;SDS011;65503;48.534;9.062;2022-12-18T11:42:27;58.38;;;23.45;;
76610;SDS011;65503;48.534;9.062;2022-12-18T11:45:04;53.08;;;22.35;;
76610;SDS011;65503;48.534;9.062;2022-12-18T11:47:41;57.15;;;22.10;;
76610;SDS011;65503;48.534;9.062;2022-12-18T11:50:19;53.75;;;23.45;;
76610;SDS011;65503;48.534;9.062;2022-12-18T11:52:50;43.80;;;19.33;;
76610;SDS011;65503;48.534;9.062;2022-12-18T11:58:18;34.25;;;12.95;;
76610;SDS011;65503;48.534;9.062;2022-12-18T12:06:45;56.78;;;22.73;;
76610;SDS011;65503;48.534;9.062;2022-12-18T12:09:36;52.15;;;19.70;;
76610;SDS011;65503;48.534;9.062;2022-12-18T12:15:23;56.55;;;24.15;;
76610;SDS011;65503;48.534;9.062;2022-12-18T12:18:08;48.35;;;18.85;;
76610;SDS011;65503;48.534;9.062;2022-12-18T12:20:49;35.92;;;13.57;;
76610;SDS011;65503;48.534;9.062;2022-12-18T12:26:14;59.42;;;22.60;;
76610;SDS011;65503;48.534;9.062;2022-12-18T12:39:46;61.72;;;23.95;;
76610;SDS011;65503;48.534;9.062;2022-12-18T12:42:18;60.13;;;23.88;;
76610;SDS011;65503;48.534;9.062;2022-12-18T12:45:12;57.83;;;25.25;;
76610;SDS011;65503;48.534;9.062;2022-12-18T12:47:44;67.85;;;27.33;;
76610;SDS011;65503;48.534;9.062;2022-12-18T12:50:18;59.92;;;26.05;;
76610;SDS011;65503;48.534;9.062;2022-12-18T12:52:48;49.15;;;19.92;;
76610;SDS011;65503;48.534;9.062;2022-12-18T12:55:23;56.85;;;21.85;;
76610;SDS011;65503;48.534;9.062;2022-12-18T12:57:57;54.53;;;25.45;;
76610;SDS011;65503;48.534;9.062;2022-12-18T13:00:36;64.68;;;25.95;;
76610;SDS011;65503;48.534;9.062;2022-12-18T13:03:28;62.72;;;26.17;;
76610;SDS011;65503;48.534;9.062;2022-12-18T13:09:04;40.10;;;15.48;;
76610;SDS011;65503;48.534;9.062;2022-12-18T13:11:35;32.13;;;13.65;;
76610;SDS011;65503;48.534;9.062;2022-12-18T13:14:32;51.70;;;22.35;;
76610;SDS011;65503;48.534;9.062;2022-12-18T13:22:35;50.17;;;24.33;;
76610;SDS011;65503;48.534;9.062;2022-12-18T13:25:50;44.42;;;17.75;;
76610;SDS011;65503;48.534;9.062;2022-12-18T13:28:05;36.67;;;16.23;;
76610;SDS011;65503;48.534;9.062;2022-12-18T13:35:41;41.85;;;15.98;;
76610;SDS011;65503;48.534;9.062;2022-12-18T13:40:58;50.42;;;21.27;;
76610;SDS011;65503;48.534;9.062;2022-12-18T13:46:28;47.83;;;20.60;;
76610;SDS011;65503;48.534;9.062;2022-12-18T13:51:47;57.60;;;23.40;;
76610;SDS011;65503;48.534;9.062;2022-12-18T13:59:57;41.83;;;17.15;;
76610;SDS011;65503;48.534;9.062;2022-12-18T14:02:25;39.75;;;16.17;;
76610;SDS011;65503;48.534;9.062;2022-12-18T14:04:54;31.60;;;13.93;;
76610;SDS011;65503;48.534;9.062;2022-12-18T14:07:22;36.35;;;13.13;;
76610;SDS011;65503;48.534;9.062;2022-12-18T14:09:52;35.38;;;14.80;;
76610;SDS011;65503;48.534;9.062;2022-12-18T14:12:37;36.30;;;15.52;;
76610;SDS011;65503;48.534;9.062;2022-12-18T14:17:55;34.90;;;13.68;;
76610;SDS011;65503;48.534;9.062;2022-12-18T14:20:26;36.03;;;12.88;;
76610;SDS011;65503;48.534;9.062;2022-12-18T14:22:55;38.58;;;15.27;;
76610;SDS011;65503;48.534;9.062;2022-12-18T14:25:24;43.60;;;16.95;;
76610;SDS011;65503;48.534;9.062;2022-12-18T14:28:02;33.80;;;14.95;;
76610;SDS011;65503;48.534;9.062;2022-12-18T14:30:37;44.67;;;16.20;;
76610;SDS011;65503;48.534;9.062;2022-12-18T14:33:16;50.08;;;18.63;;
76610;SDS011;65503;48.534;9.062;2022-12-18T14:38:35;44.22;;;17.38;;
76610;SDS011;65503;48.534;9.062;2022-12-18T14:41:04;43.58;;;16.20;;
76610;SDS011;65503;48.534;9.062;2022-12-18T14:43:37;41.97;;;16.80;;
76610;SDS011;65503;48.534;9.062;2022-12-18T14:46:25;56.25;;;25.40;;
76610;SDS011;65503;48.534;9.062;2022-12-18T14:49:00;41.65;;;17.00;;
76610;SDS011;65503;48.534;9.062;2022-12-18T14:51:30;52.33;;;19.05;;
76610;SDS011;65503;48.534;9.062;2022-12-18T14:54:02;48.25;;;16.48;;
76610;SDS011;65503;48.534;9.062;2022-12-18T14:56:34;45.72;;;17.42;;
76610;SDS011;65503;48.534;9.062;2022-12-18T14:59:03;39.90;;;15.57;;
76610;SDS011;65503;48.534;9.062;2022-12-18T15:01:36;38.78;;;14.50;;
76610;SDS011;65503;48.534;9.062;2022-12-18T15:04:24;37.50;;;13.65;;
76610;SDS011;65503;48.534;9.062;2022-12-18T15:07:03;50.75;;;18.45;;
76610;SDS011;65503;48.534;9.062;2022-12-18T15:09:40;43.85;;;17.67;;
76610;SDS011;65503;48.534;9.062;2022-12-18T15:12:19;51.65;;;20.00;;
76610;SDS011;65503;48.534;9.062;2022-12-18T15:14:54;46.35;;;16.30;;
76610;SDS011;65503;48.534;9.062;2022-12-18T15:17:21;44.40;;;15.05;;
76610;SDS011;65503;48.534;9.062;2022-12-18T15:19:53;35.17;;;13.77;;
76610;SDS011;65503;48.534;9.062;2022-12-18T15:22:27;44.58;;;15.98;;
76610;SDS011;65503;48.534;9.062;2022-12-18T15:25:27;43.42;;;16.45;;
76610;SDS011;65503;48.534;9.062;2022-12-18T15:28:03;42.90;;;16.13;;
76610;SDS011;65503;48.534;9.062;2022-12-18T15:30:30;46.17;;;15.65;;
76610;SDS011;65503;48.534;9.062;2022-12-18T15:33:17;43.58;;;15.27;;
76610;SDS011;65503;48.534;9.062;2022-12-18T15:36:01;48.38;;;16.00;;
76610;SDS011;65503;48.534;9.062;2022-12-18T15:38:29;48.92;;;16.60;;
76610;SDS011;65503;48.534;9.062;2022-12-18T15:40:56;38.97;;;15.05;;
76610;SDS011;65503;48.534;9.062;2022-12-18T15:43:23;46.00;;;17.48;;
76610;SDS011;65503;48.534;9.062;2022-12-18T15:46:08;41.95;;;17.52;;
76610;SDS011;65503;48.534;9.062;2022-12-18T15:48:42;47.50;;;16.42;;
76610;SDS011;65503;48.534;9.062;2022-12-18T15:51:11;46.60;;;15.57;;
76610;SDS011;65503;48.534;9.062;2022-12-18T15:53:42;40.50;;;13.60;;
76610;SDS011;65503;48.534;9.062;2022-12-18T15:56:13;41.80;;;13.40;;
76610;SDS011;65503;48.534;9.062;2022-12-18T15:58:59;44.72;;;13.77;;
76610;SDS011;65503;48.534;9.062;2022-12-18T16:01:28;36.15;;;12.90;;
76610;SDS011;65503;48.534;9.062;2022-12-18T16:03:56;42.33;;;14.50;;
76610;SDS011;65503;48.534;9.062;2022-12-18T16:06:23;61.63;;;20.88;;
76610;SDS011;65503;48.534;9.062;2022-12-18T16:08:49;57.30;;;20.00;;
76610;SDS011;65503;48.534;9.062;2022-12-18T16:11:27;51.88;;;17.27;;
76610;SDS011;65503;48.534;9.062;2022-12-18T16:14:05;49.47;;;17.45;;
76610;SDS011;65503;48.534;9.062;2022-12-18T16:16:41;40.00;;;13.57;;
76610;SDS011;65503;48.534;9.062;2022-12-18T16:19:07;43.78;;;15.20;;
76610;SDS011;65503;48.534;9.062;2022-12-18T16:21:34;60.63;;;17.13;;
76610;SDS011;65503;48.534;9.062;2022-12-18T16:24:01;43.45;;;16.80;;
76610;SDS011;65503;48.534;9.062;2022-12-18T16:26:28;39.10;;;14.00;;
76610;SDS011;65503;48.534;9.062;2022-12-18T16:28:54;87.68;;;31.98;;
76610;SDS011;65503;48.534;9.062;2022-12-18T16:31:21;69.43;;;25.80;;
76610;SDS011;65503;48.534;9.062;2022-12-18T16:33:47;54.45;;;21.02;;
76610;SDS011;65503;48.534;9.062;2022-12-18T16:36:14;81.47;;;30.30;;
76610;SDS011;65503;48.534;9.062;2022-12-18T16:38:41;94.72;;;40.00;;